Hovedside
METAR-TAF:

METAR-TAF

Lufthavner :

Mora–Siljan

Mora, Sverige

breddegrad: 60-57-31N, lengdegrad: 14-30-40E, høyde over havet: 193 m

Gjeldene værobservasjon

Denne rapporten ble laget for 23 minutter siden, klokken 03:50 UTC
Vind 7 kt fra Vest
Temperatur 8°C
Luftfuktighet 66%
Trykk 1008 hPa
Sikt 10 km eller mer

METAR: ESKM 230350Z AUTO 28007KT 9999 OVC062/// 08/02 Q1008

Tid: 06:13 (04:13 UTC)


TAF: fraværende

Værobservasjoner og værvarsel for over 4000 flyplasser (METAR- og TAF-rapporter).

Tilgjengelige stasjoner er representert av de røde og gule prikkene på kartet.

Hold musepekeren over prikken for å se navnet på stasjonen.

Klikk så for å se værobservasjoner og -varsler.

For å forandre kartet kan du klikke på den grønne knappen med svart kryss for å zoome inn, på den grønne knappen med strek for å zoome ut, eller på de grønne pilene for å se tilstøtende kart.


METAR-TAF: